Time;durP1;ratioP1;P1;durP2;ratioP2;P2;SDS_P1;SDS_P2;PMS_P1;PMS_P2;Temp;Humidity;BMP_temperature;BMP_pressure;BME280_temperature;BME280_humidity;BME280_pressure;Samples;Min_cycle;Max_cycle;Signal;HPM_P1;HPM_P2
2022/09/07 00:00:33;;;;;;;9.63;4.07;;;22.20;1.00;;;;;;5045292;28;20288;-75
2022/09/07 00:02:59;;;;;;;5.53;4.00;;;22.20;1.00;;;;;;5048269;28;20192;-74
2022/09/07 00:05:25;;;;;;;6.10;3.93;;;22.20;1.00;;;;;;5037444;28;20949;-75
2022/09/07 00:07:51;;;;;;;6.60;3.93;;;;;;;;;;5051887;28;20604;-75
2022/09/07 00:10:16;;;;;;;7.23;3.40;;;22.30;1.00;;;;;;5042804;28;20188;-75
2022/09/07 00:12:42;;;;;;;6.57;4.20;;;22.30;1.00;;;;;;5044013;28;20788;-74
2022/09/07 00:15:10;;;;;;;8.73;3.90;;;22.30;1.00;;;;;;5048818;28;20192;-74
2022/09/07 00:17:36;;;;;;;9.80;3.67;;;22.30;1.00;;;;;;5052695;28;20192;-74
2022/09/07 00:20:04;;;;;;;8.10;3.80;;;22.20;1.00;;;;;;5048994;28;20495;-74
2022/09/07 00:22:29;;;;;;;7.10;3.50;;;22.20;1.00;;;;;;5048034;28;20272;-76
2022/09/07 00:24:55;;;;;;;10.17;3.97;;;;;;;;;;5048104;28;20556;-74
2022/09/07 00:27:21;;;;;;;8.63;4.00;;;22.20;1.00;;;;;;5051910;28;20188;-74
2022/09/07 00:29:46;;;;;;;7.77;3.70;;;22.20;1.00;;;;;;5047041;28;20200;-74
2022/09/07 00:32:12;;;;;;;7.77;3.93;;;23.20;1.00;;;;;;5047554;28;20318;-75
2022/09/07 00:34:37;;;;;;;7.70;3.93;;;22.20;1.00;;;;;;5049639;28;20296;-74
2022/09/07 00:37:03;;;;;;;7.83;3.87;;;22.10;1.00;;;;;;5050334;28;20203;-73
2022/09/07 00:39:29;;;;;;;7.17;3.70;;;22.10;1.00;;;;;;5048195;28;20239;-74
2022/09/07 00:41:54;;;;;;;8.50;3.43;;;22.10;1.00;;;;;;5046387;28;20177;-75
2022/09/07 00:44:41;;;;;;;7.73;3.80;;;22.10;1.00;;;;;;5049041;28;20205;-73
2022/09/07 00:47:38;;;;;;;9.40;3.60;;;22.10;1.00;;;;;;5052091;28;20169;-74
2022/09/07 00:50:19;;;;;;;6.00;3.40;;;22.00;1.00;;;;;;5037915;28;21004;-74
2022/09/07 00:52:49;;;;;;;7.50;3.10;;;22.00;1.00;;;;;;5047297;28;20476;-74
2022/09/07 00:55:16;;;;;;;7.20;3.10;;;22.00;1.00;;;;;;5035629;28;20992;-74
2022/09/07 00:57:46;;;;;;;6.30;3.23;;;21.90;1.00;;;;;;5049108;28;20410;-74
2022/09/07 01:00:12;;;;;;;16.03;3.70;;;21.90;1.00;;;;;;5045258;28;21031;-74
2022/09/07 01:02:37;;;;;;;8.03;3.20;;;21.90;1.00;;;;;;5038964;28;20432;-75
2022/09/07 01:05:10;;;;;;;4.63;3.20;;;21.90;1.00;;;;;;5043490;28;20662;-74
2022/09/07 01:07:36;;;;;;;7.70;3.13;;;21.90;1.00;;;;;;5049908;28;20176;-74
2022/09/07 01:10:01;;;;;;;13.57;3.03;;;21.90;1.00;;;;;;5043504;28;20431;-74
2022/09/07 01:12:27;;;;;;;5.83;3.63;;;21.90;1.00;;;;;;5045290;28;20247;-73
2022/09/07 01:14:54;;;;;;;7.00;3.47;;;22.40;1.00;;;;;;5053880;28;20561;-74
2022/09/07 01:18:10;;;;;;;4.83;3.07;;;21.90;1.00;;;;;;5065493;28;20637;-74
2022/09/07 01:21:05;;;;;;;5.60;3.10;;;21.90;1.00;;;;;;5059699;28;20595;-74
2022/09/07 01:24:00;;;;;;;6.43;3.03;;;21.90;1.00;;;;;;5054607;28;20437;-74
2022/09/07 01:26:47;;;;;;;6.27;3.20;;;22.00;1.00;;;;;;5048656;28;20762;-74
2022/09/07 01:29:24;;;;;;;6.90;3.47;;;21.90;1.00;;;;;;5038862;28;20439;-75
2022/09/07 01:31:57;;;;;;;5.60;3.20;;;21.90;1.00;;;;;;5046997;28;20474;-74
2022/09/07 01:34:25;;;;;;;7.17;3.40;;;21.90;1.00;;;;;;5036780;28;20840;-74
2022/09/07 01:37:24;;;;;;;9.13;3.50;;;22.00;1.00;;;;;;5050039;28;20576;-74
2022/09/07 01:40:04;;;;;;;8.80;3.60;;;22.00;1.00;;;;;;5039541;28;20470;-74
2022/09/07 01:42:35;;;;;;;8.43;4.00;;;21.90;1.00;;;;;;5042158;28;20559;-75
2022/09/07 01:45:05;;;;;;;11.07;3.57;;;21.80;1.00;;;;;;5034998;28;20454;-74
2022/09/07 01:47:41;;;;;;;8.23;3.63;;;21.80;1.00;;;;;;5050809;28;20403;-73
2022/09/07 01:50:30;;;;;;;7.40;3.30;;;21.80;1.00;;;;;;5044488;28;20959;-74
2022/09/07 01:52:59;;;;;;;8.50;3.67;;;21.90;1.00;;;;;;5032992;28;20518;-74
2022/09/07 01:55:32;;;;;;;8.93;3.87;;;21.90;1.00;;;;;;5046014;28;20434;-74
2022/09/07 01:58:09;;;;;;;8.60;3.30;;;21.90;1.00;;;;;;5048117;28;20492;-74
2022/09/07 02:00:39;;;;;;;6.63;3.40;;;21.90;1.00;;;;;;5047700;28;20578;-74
2022/09/07 02:03:04;;;;;;;6.27;3.40;;;22.20;1.00;;;;;;5036150;28;20450;-74
2022/09/07 02:05:41;;;;;;;7.23;3.97;;;21.80;1.00;;;;;;5046023;28;20917;-74
2022/09/07 02:08:39;;;;;;;15.10;3.43;;;21.90;1.00;;;;;;5031554;28;20194;-75
2022/09/07 02:11:20;;;;;;;7.53;3.60;;;21.80;1.00;;;;;;5042622;28;20430;-74
2022/09/07 02:14:02;;;;;;;6.07;3.63;;;21.80;1.00;;;;;;5043483;28;20436;-74
2022/09/07 02:16:30;;;;;;;6.57;3.33;;;21.80;1.00;;;;;;5048674;28;20430;-74
2022/09/07 02:19:08;;;;;;;6.40;3.60;;;21.80;1.00;;;;;;5045632;28;20434;-74
2022/09/07 02:21:39;;;;;;;14.07;4.40;;;21.80;1.00;;;;;;5048374;28;20413;-74
2022/09/07 02:24:14;;;;;;;11.97;4.13;;;21.70;1.00;;;;;;5034683;28;20439;-74
2022/09/07 02:26:41;;;;;;;9.57;4.30;;;21.40;1.00;;;;;;5048214;28;20437;-74
2022/09/07 02:29:07;;;;;;;18.93;5.03;;;21.10;1.00;;;;;;5043598;28;20443;-74
2022/09/07 02:31:33;;;;;;;12.53;4.30;;;;;;;;;;5047869;28;20649;-74
2022/09/07 02:34:02;;;;;;;11.37;4.27;;;20.50;1.00;;;;;;5043882;28;20587;-74
2022/09/07 02:36:32;;;;;;;8.43;4.03;;;20.30;1.00;;;;;;5043995;28;20446;-74
2022/09/07 02:38:58;;;;;;;7.77;4.40;;;20.10;1.00;;;;;;5046787;28;20428;-74
2022/09/07 02:41:32;;;;;;;9.43;4.97;;;20.00;1.00;;;;;;5045718;28;20442;-74
2022/09/07 02:43:59;;;;;;;7.57;4.30;;;19.90;15.90;;;;;;5047583;28;20177;-74
2022/09/07 02:46:50;;;;;;;12.73;4.87;;;19.90;16.90;;;;;;5042592;28;20597;-75
2022/09/07 02:49:37;;;;;;;13.23;4.90;;;19.80;24.70;;;;;;5034654;28;20982;-74
2022/09/07 02:52:28;;;;;;;12.43;5.00;;;19.90;33.20;;;;;;5043387;28;20452;-74
2022/09/07 02:55:21;;;;;;;10.77;4.90;;;20.00;37.60;;;;;;5043417;28;20473;-74
2022/09/07 02:58:24;;;;;;;13.67;6.13;;;20.10;44.80;;;;;;5048611;28;20502;-74
2022/09/07 03:00:57;;;;;;;15.50;5.20;;;20.10;46.40;;;;;;5048246;28;20459;-75
2022/09/07 03:03:53;;;;;;;14.30;5.97;;;20.10;46.40;;;;;;5032358;28;20460;-73
2022/09/07 03:06:33;;;;;;;12.30;6.10;;;20.00;46.40;;;;;;5043165;28;20442;-74
2022/09/07 03:09:04;;;;;;;26.20;7.17;;;20.00;46.50;;;;;;5043422;28;20431;-74
2022/09/07 03:11:29;;;;;;;18.67;6.90;;;19.90;59.20;;;;;;5045264;28;20427;-75
2022/09/07 03:14:20;;;;;;;16.87;5.90;;;19.90;60.90;;;;;;5043323;28;20449;-74
2022/09/07 03:16:48;;;;;;;10.27;5.87;;;19.80;58.10;;;;;;5047323;28;20169;-74
2022/09/07 03:19:14;;;;;;;13.63;5.77;;;19.50;46.80;;;;;;5035682;28;20474;-73
2022/09/07 03:21:39;;;;;;;11.53;5.90;;;19.30;50.60;;;;;;5048492;28;20424;-74
2022/09/07 03:24:05;;;;;;;8.47;5.80;;;19.30;59.00;;;;;;5042558;28;20204;-73
2022/09/07 03:26:31;;;;;;;11.90;5.67;;;19.30;53.60;;;;;;5047158;28;20193;-73
2022/09/07 03:28:57;;;;;;;13.30;6.50;;;;;;;;;;5042011;28;20279;-74
2022/09/07 03:31:23;;;;;;;11.07;5.53;;;19.10;68.70;;;;;;5047224;28;20169;-73
2022/09/07 03:33:48;;;;;;;8.63;5.70;;;19.10;68.40;;;;;;5042790;28;20911;-74
2022/09/07 03:36:14;;;;;;;12.03;6.13;;;19.00;61.40;;;;;;5048904;28;20620;-73
2022/09/07 03:38:39;;;;;;;8.23;5.47;;;18.90;56.40;;;;;;5043065;28;20606;-73
2022/09/07 03:41:06;;;;;;;6.20;5.17;;;18.80;55.20;;;;;;5045217;28;20682;-73
2022/09/07 03:43:33;;;;;;;9.40;5.77;;;18.80;63.10;;;;;;5044591;28;20223;-73
2022/09/07 03:46:00;;;;;;;12.53;5.77;;;18.80;71.90;;;;;;5048446;28;20957;-74
2022/09/07 03:48:28;;;;;;;9.00;5.90;;;18.80;66.40;;;;;;5045669;28;20407;-73
2022/09/07 03:50:59;;;;;;;9.80;5.80;;;18.80;62.80;;;;;;5040333;28;20416;-73
2022/09/07 03:53:25;;;;;;;10.43;5.87;;;18.70;70.30;;;;;;5043010;28;20439;-74
2022/09/07 03:56:02;;;;;;;7.47;5.47;;;18.70;68.20;;;;;;5046846;28;20522;-75
2022/09/07 03:58:30;;;;;;;9.23;6.20;;;18.70;65.70;;;;;;5038508;28;20181;-73
2022/09/07 04:00:56;;;;;;;11.37;6.60;;;18.60;73.00;;;;;;5040507;28;20878;-74
2022/09/07 04:03:21;;;;;;;8.53;6.07;;;18.60;80.90;;;;;;5042027;28;20424;-74
2022/09/07 04:05:47;;;;;;;11.97;6.70;;;18.60;82.60;;;;;;5046921;28;20443;-73
2022/09/07 04:08:12;;;;;;;10.47;6.43;;;18.60;85.70;;;;;;5040727;28;20184;-74
2022/09/07 04:10:38;;;;;;;7.70;6.00;;;18.70;85.80;;;;;;5043537;28;20193;-73
2022/09/07 04:13:05;;;;;;;9.90;6.07;;;18.70;80.90;;;;;;5045865;28;20188;-73
2022/09/07 04:15:30;;;;;;;7.87;5.77;;;18.80;84.50;;;;;;5046617;28;20448;-73
2022/09/07 04:17:56;;;;;;;11.03;6.10;;;18.80;74.90;;;;;;5048715;28;20431;-74
2022/09/07 04:20:21;;;;;;;9.40;6.20;;;18.80;74.10;;;;;;5046000;28;20235;-73
2022/09/07 04:22:48;;;;;;;9.87;6.13;;;18.90;82.40;;;;;;5048396;28;20274;-73
2022/09/07 04:25:14;;;;;;;9.90;5.70;;;18.70;82.90;;;;;;5041680;28;20197;-73
2022/09/07 04:27:39;;;;;;;9.87;6.03;;;18.90;67.00;;;;;;5038809;28;20444;-73
2022/09/07 04:30:05;;;;;;;9.77;6.73;;;18.90;70.90;;;;;;5048720;28;20706;-73
2022/09/07 04:32:31;;;;;;;11.40;6.33;;;18.90;70.60;;;;;;5040110;28;20185;-73
2022/09/07 04:34:56;;;;;;;9.20;6.10;;;18.90;77.00;;;;;;5047800;28;20615;-73
2022/09/07 04:37:22;;;;;;;14.93;6.50;;;18.90;79.40;;;;;;5040994;28;20186;-73
2022/09/07 04:39:47;;;;;;;11.90;6.10;;;19.00;73.00;;;;;;5043868;28;20201;-73
2022/09/07 04:42:13;;;;;;;14.37;5.80;;;19.00;72.20;;;;;;5047367;28;20170;-73
2022/09/07 04:44:38;;;;;;;9.53;5.87;;;18.90;71.90;;;;;;5049619;28;20505;-73
2022/09/07 04:47:05;;;;;;;9.80;6.00;;;19.00;79.00;;;;;;5044022;28;20201;-74
2022/09/07 04:49:30;;;;;;;8.57;5.80;;;19.10;82.70;;;;;;5038848;28;20228;-73
2022/09/07 04:51:55;;;;;;;9.43;5.63;;;19.10;75.00;;;;;;5047228;28;20929;-75
2022/09/07 04:54:21;;;;;;;12.03;5.80;;;19.10;67.60;;;;;;5050208;28;20169;-74
2022/09/07 04:56:46;;;;;;;8.23;5.60;;;19.10;71.40;;;;;;5050284;28;20513;-73
2022/09/07 04:59:12;;;;;;;12.30;5.50;;;19.10;60.40;;;;;;5044897;28;20291;-75
2022/09/07 05:01:38;;;;;;;8.13;5.80;;;19.00;60.40;;;;;;5050047;28;20369;-74
2022/09/07 05:04:04;;;;;;;7.63;5.70;;;18.90;66.40;;;;;;5043205;28;20183;-73
2022/09/07 05:06:29;;;;;;;8.37;5.47;;;18.90;69.10;;;;;;5050735;28;20443;-73
2022/09/07 05:08:57;;;;;;;9.03;5.70;;;18.90;71.00;;;;;;5043100;28;20271;-74
2022/09/07 05:11:24;;;;;;;7.90;5.10;;;18.90;62.30;;;;;;5047520;28;20178;-73
2022/09/07 05:13:49;;;;;;;9.83;5.70;;;18.90;58.60;;;;;;5051435;28;20539;-73
2022/09/07 05:16:18;;;;;;;11.17;5.30;;;18.90;60.70;;;;;;5066896;28;20509;-74
2022/09/07 05:18:44;;;;;;;6.10;5.50;;;19.00;66.70;;;;;;5071674;28;20247;-74
2022/09/07 05:21:22;;;;;;;11.70;5.67;;;19.00;63.60;;;;;;5050109;28;20517;-74
2022/09/07 05:23:50;;;;;;;6.80;5.20;;;19.00;58.40;;;;;;5043078;28;20436;-74
2022/09/07 05:26:16;;;;;;;7.77;5.63;;;19.00;62.90;;;;;;5050416;28;20435;-74
2022/09/07 05:28:42;;;;;;;8.90;5.50;;;19.00;63.70;;;;;;5043108;28;20447;-74
2022/09/07 05:31:13;;;;;;;11.80;5.80;;;19.10;66.30;;;;;;5045800;28;20421;-73
2022/09/07 05:33:39;;;;;;;8.73;5.30;;;19.20;67.60;;;;;;5033317;28;20242;-74
2022/09/07 05:36:05;;;;;;;14.10;5.73;;;19.20;60.00;;;;;;5046512;28;20443;-75
2022/09/07 05:38:34;;;;;;;8.30;5.57;;;19.30;46.60;;;;;;5044093;28;20227;-73
2022/09/07 05:41:00;;;;;;;8.90;5.77;;;19.40;56.00;;;;;;5043525;28;20451;-72
2022/09/07 05:43:26;;;;;;;9.63;5.77;;;19.60;49.10;;;;;;5047332;28;20409;-73
2022/09/07 05:45:55;;;;;;;11.33;5.70;;;19.90;47.50;;;;;;5049973;28;20809;-73
2022/09/07 05:48:20;;;;;;;7.22;4.90;;;19.80;46.20;;;;;;5036252;28;20507;-76
2022/09/07 05:50:51;;;;;;;9.37;5.20;;;20.00;49.00;;;;;;5045583;28;20268;-75
2022/09/07 05:53:18;;;;;;;7.47;4.97;;;20.30;35.20;;;;;;5049539;28;20252;-75
2022/09/07 05:55:44;;;;;;;8.30;4.90;;;20.40;31.90;;;;;;5042074;28;20477;-75
2022/09/07 05:58:10;;;;;;;12.40;5.70;;;20.30;29.60;;;;;;5038345;28;20921;-75
2022/09/07 06:00:35;;;;;;;11.63;5.23;;;20.40;32.30;;;;;;5041052;28;20202;-75
2022/09/07 06:03:01;;;;;;;9.53;5.30;;;20.40;35.80;;;;;;5036456;28;20177;-75
2022/09/07 06:05:26;;;;;;;8.87;4.90;;;20.50;31.90;;;;;;5036309;28;20289;-75
2022/09/07 06:07:52;;;;;;;7.43;4.87;;;20.90;24.00;;;;;;5043216;28;20177;-74
2022/09/07 06:10:17;;;;;;;10.43;4.40;;;20.80;21.00;;;;;;5042118;28;20177;-76
2022/09/07 06:12:46;;;;;;;11.63;4.57;;;20.90;17.20;;;;;;5047249;28;20176;-75
2022/09/07 06:15:12;;;;;;;10.50;4.00;;;21.00;17.00;;;;;;5050946;28;20567;-75
2022/09/07 06:17:38;;;;;;;8.33;4.53;;;21.20;15.70;;;;;;5048491;28;20488;-75
2022/09/07 06:20:05;;;;;;;8.10;4.20;;;21.20;16.10;;;;;;5043233;28;20193;-74
2022/09/07 06:22:33;;;;;;;9.27;4.30;;;21.30;13.20;;;;;;5044040;28;21000;-74
2022/09/07 06:24:59;;;;;;;11.73;4.53;;;21.50;11.50;;;;;;5043265;28;20459;-73
2022/09/07 06:27:24;;;;;;;12.80;4.60;;;21.50;1.00;;;;;;5036702;28;20518;-71
2022/09/07 06:29:50;;;;;;;9.27;4.70;;;21.50;2.20;;;;;;5040500;28;20181;-74
2022/09/07 06:32:15;;;;;;;11.27;4.50;;;21.50;7.60;;;;;;5038773;28;20198;-73
2022/09/07 06:34:41;;;;;;;14.60;4.90;;;21.50;1.00;;;;;;5039744;28;20284;-74
2022/09/07 06:37:06;;;;;;;11.10;5.30;;;21.50;1.00;;;;;;5047987;28;20197;-74
2022/09/07 06:39:33;;;;;;;9.20;4.37;;;21.50;5.60;;;;;;5043896;28;20516;-72
2022/09/07 06:41:58;;;;;;;13.10;4.43;;;22.10;1.00;;;;;;5041857;28;20256;-73
2022/09/07 06:44:24;;;;;;;8.47;4.23;;;22.90;1.00;;;;;;5041536;28;20871;-75
2022/09/07 06:46:49;;;;;;;8.23;3.80;;;23.90;1.00;;;;;;5040755;28;20184;-73
2022/09/07 06:49:15;;;;;;;7.57;4.20;;;24.60;1.00;;;;;;5036303;28;20925;-73
2022/09/07 06:51:40;;;;;;;6.23;3.50;;;24.80;1.00;;;;;;5041242;28;20673;-71
2022/09/07 06:54:06;;;;;;;7.23;3.70;;;24.60;1.00;;;;;;5052673;28;20253;-73
2022/09/07 06:56:31;;;;;;;9.70;3.87;;;23.90;1.00;;;;;;5041930;28;20548;-74
2022/09/07 06:58:58;;;;;;;9.30;3.77;;;23.50;1.00;;;;;;5037911;28;20226;-74
2022/09/07 07:01:24;;;;;;;16.83;4.13;;;23.40;1.00;;;;;;5043646;28;20201;-73
2022/09/07 07:03:51;;;;;;;6.20;3.60;;;23.80;1.00;;;;;;5047562;28;20532;-73
2022/09/07 07:06:18;;;;;;;7.50;4.07;;;24.30;1.00;;;;;;5048746;28;20451;-73
2022/09/07 07:08:43;;;;;;;8.47;4.10;;;24.70;1.00;;;;;;5042516;28;20442;-73
2022/09/07 07:11:14;;;;;;;9.60;4.00;;;25.50;1.00;;;;;;5047939;28;20426;-72
2022/09/07 07:13:42;;;;;;;6.47;3.43;;;25.30;1.00;;;;;;5047022;28;20181;-73
2022/09/07 07:16:12;;;;;;;5.13;3.47;;;24.20;1.00;;;;;;5042605;28;20470;-73
2022/09/07 07:18:38;;;;;;;9.20;3.97;;;24.10;1.00;;;;;;5046527;28;20415;-73
2022/09/07 07:21:06;;;;;;;8.60;3.40;;;24.30;1.00;;;;;;5043975;28;20459;-73
2022/09/07 07:23:33;;;;;;;7.97;3.50;;;24.60;1.00;;;;;;5043624;28;20423;-73
2022/09/07 07:26:13;;;;;;;10.03;3.80;;;25.60;1.00;;;;;;5046943;28;20449;-73
2022/09/07 07:28:48;;;;;;;12.00;3.57;;;26.80;1.00;;;;;;5045451;28;20439;-74
2022/09/07 07:31:15;;;;;;;6.73;3.60;;;27.20;1.00;;;;;;5046160;28;20436;-73
2022/09/07 07:33:41;;;;;;;5.30;3.30;;;27.30;1.00;;;;;;5042395;28;20197;-73
2022/09/07 07:36:16;;;;;;;7.07;3.40;;;28.00;1.00;;;;;;5047113;28;20222;-73
2022/09/07 07:38:44;;;;;;;8.83;3.50;;;28.80;1.00;;;;;;5047841;28;20169;-74
2022/09/07 07:41:10;;;;;;;7.97;3.42;;;29.30;1.00;;;;;;5045941;28;20278;-74
2022/09/07 07:43:36;;;;;;;7.57;3.38;;;29.20;1.00;;;;;;5049413;28;20627;-74
2022/09/07 07:46:02;;;;;;;5.20;2.85;;;29.40;1.00;;;;;;5053334;28;20200;-74
2022/09/07 07:48:28;;;;;;;9.80;3.03;;;29.60;1.00;;;;;;5056667;28;20176;-75
2022/09/07 07:51:02;;;;;;;6.65;3.00;;;30.10;1.00;;;;;;5040138;28;20188;-75
2022/09/07 07:53:29;;;;;;;7.55;3.63;;;30.50;1.00;;;;;;5043358;28;20222;-75
2022/09/07 07:55:58;;;;;;;8.63;3.10;;;30.20;1.00;;;;;;5054795;28;20207;-75
2022/09/07 07:58:26;;;;;;;10.07;3.30;;;30.40;1.00;;;;;;5046381;28;20172;-74
2022/09/07 08:00:52;;;;;;;7.45;3.20;;;30.60;1.00;;;;;;5050961;28;20196;-74
2022/09/07 08:03:18;;;;;;;13.00;3.35;;;31.20;1.00;;;;;;5046390;28;20667;-73
2022/09/07 08:05:43;;;;;;;7.32;3.30;;;31.60;1.00;;;;;;5048532;28;20201;-74
2022/09/07 08:08:10;;;;;;;6.03;3.05;;;32.10;1.00;;;;;;5042542;28;20179;-75
2022/09/07 08:10:36;;;;;;;9.43;3.35;;;32.00;1.00;;;;;;5043878;28;20188;-74
2022/09/07 08:13:01;;;;;;;7.30;3.30;;;32.20;1.00;;;;;;5044382;28;20185;-74
2022/09/07 08:15:27;;;;;;;5.57;2.80;;;32.80;1.00;;;;;;5056548;28;20253;-74
2022/09/07 08:17:52;;;;;;;7.90;2.92;;;32.90;1.00;;;;;;5045835;28;20193;-74
2022/09/07 08:20:18;;;;;;;6.32;2.92;;;32.80;1.00;;;;;;5046955;28;20677;-75
2022/09/07 08:22:43;;;;;;;5.45;2.97;;;32.00;1.00;;;;;;5047141;28;20239;-73
2022/09/07 08:25:09;;;;;;;5.35;2.70;;;32.20;1.00;;;;;;5046502;28;20281;-74
2022/09/07 08:27:35;;;;;;;7.82;2.80;;;32.10;1.00;;;;;;5052484;28;20192;-74
2022/09/07 08:30:02;;;;;;;5.00;2.45;;;32.90;1.00;;;;;;5044549;28;20558;-75
2022/09/07 08:32:28;;;;;;;4.82;2.80;;;33.60;1.00;;;;;;5048300;28;20196;-74
2022/09/07 08:34:54;;;;;;;6.68;2.72;;;33.50;1.00;;;;;;5053578;28;20276;-74
2022/09/07 08:37:20;;;;;;;10.02;2.83;;;34.30;1.00;;;;;;5050301;28;20643;-74
2022/09/07 08:39:46;;;;;;;9.38;2.88;;;34.70;1.00;;;;;;5044758;28;20631;-74
2022/09/07 08:42:50;;;;;;;5.85;2.95;;;34.80;1.00;;;;;;5052229;28;20203;-74
2022/09/07 08:45:35;;;;;;;6.35;2.58;;;35.10;1.00;;;;;;5055582;28;20620;-74
2022/09/07 08:48:03;;;;;;;9.32;2.65;;;35.50;1.00;;;;;;5048036;28;20250;-75
2022/09/07 08:50:38;;;;;;;4.78;2.80;;;35.80;1.00;;;;;;5047207;28;20601;-75
2022/09/07 08:53:17;;;;;;;6.15;2.00;;;35.60;1.00;;;;;;5050239;28;20286;-74
2022/09/07 08:55:48;;;;;;;4.93;2.80;;;34.90;1.00;;;;;;5052310;28;20250;-75
2022/09/07 08:58:19;;;;;;;7.95;3.08;;;34.40;1.00;;;;;;5051867;28;20250;-74
2022/09/07 09:00:47;;;;;;;5.38;2.35;;;34.40;1.00;;;;;;5050724;28;20204;-74
2022/09/07 09:03:22;;;;;;;5.35;2.63;;;34.70;1.00;;;;;;5046867;28;20234;-75
2022/09/07 09:05:50;;;;;;;5.15;2.80;;;35.10;1.00;;;;;;5048481;28;20211;-74
2022/09/07 09:08:34;;;;;;;5.47;2.65;;;34.50;1.00;;;;;;5048176;28;20435;-74
2022/09/07 09:11:05;;;;;;;6.60;2.40;;;35.10;1.00;;;;;;5049383;28;20204;-74
2022/09/07 09:13:51;;;;;;;4.30;2.17;;;35.90;1.00;;;;;;5052225;28;20179;-76
2022/09/07 09:16:46;;;;;;;8.65;2.88;;;36.80;1.00;;;;;;5064107;28;20345;-75
2022/09/07 09:19:40;;;;;;;5.07;2.35;;;37.00;1.00;;;;;;5072629;28;20168;-75
2022/09/07 09:22:16;;;;;;;9.50;2.63;;;37.20;1.00;;;;;;5039428;28;20180;-75
2022/09/07 09:24:46;;;;;;;5.80;2.13;;;36.10;1.00;;;;;;5050721;28;20208;-74
2022/09/07 09:27:12;;;;;;;10.25;2.60;;;35.90;1.00;;;;;;5047174;28;20714;-74
2022/09/07 09:29:38;;;;;;;6.30;2.58;;;37.10;1.00;;;;;;5049359;28;20340;-75
2022/09/07 09:32:33;;;;;;;5.10;2.58;;;37.60;1.00;;;;;;5051714;28;20647;-75
2022/09/07 09:35:13;;;;;;;5.78;2.53;;;37.90;1.00;;;;;;5050163;28;20216;-75
2022/09/07 09:37:40;;;;;;;3.80;2.30;;;38.40;1.00;;;;;;5044319;28;20181;-75
2022/09/07 09:40:17;;;;;;;10.02;2.92;;;39.00;1.00;;;;;;5046210;28;20203;-76
2022/09/07 09:42:43;;;;;;;6.05;2.65;;;38.80;1.00;;;;;;5051481;28;20222;-75
2022/09/07 09:45:20;;;;;;;8.55;2.60;;;38.90;1.00;;;;;;5056259;28;20200;-75
2022/09/07 09:47:49;;;;;;;7.20;2.85;;;39.20;1.00;;;;;;5049839;28;20324;-74
2022/09/07 09:50:22;;;;;;;6.45;2.58;;;37.60;1.00;;;;;;5045740;28;20189;-74
2022/09/07 09:52:47;;;;;;;6.28;2.90;;;37.20;1.00;;;;;;5047945;28;20176;-75
2022/09/07 09:55:23;;;;;;;7.38;2.80;;;37.70;1.00;;;;;;5044198;28;20203;-74
2022/09/07 09:57:52;;;;;;;5.20;2.50;;;37.50;1.00;;;;;;5036483;28;20448;-74
2022/09/07 10:00:20;;;;;;;6.95;3.03;;;37.70;1.00;;;;;;5033601;28;20281;-75
2022/09/07 10:03:12;;;;;;;4.00;2.42;;;38.20;1.00;;;;;;5035542;28;20181;-76
2022/09/07 10:05:43;;;;;;;6.85;2.60;;;38.70;1.00;;;;;;5049749;28;20232;-79
2022/09/07 10:08:22;;;;;;;6.75;2.30;;;38.30;1.00;;;;;;5034071;28;20173;-74
2022/09/07 10:10:57;;;;;;;5.78;2.50;;;38.40;1.00;;;;;;5046931;28;20184;-75
2022/09/07 10:13:56;;;;;;;4.90;2.90;;;38.10;1.00;;;;;;5042295;28;20218;-74
2022/09/07 10:16:40;;;;;;;5.38;2.65;;;37.80;1.00;;;;;;5034209;28;20727;-74
2022/09/07 10:19:29;;;;;;;5.43;2.58;;;36.60;1.00;;;;;;5038894;28;20718;-74
2022/09/07 10:21:57;;;;;;;5.97;2.47;;;37.70;1.00;;;;;;5048588;28;20181;-74
2022/09/07 10:24:25;;;;;;;5.65;3.10;;;38.90;1.00;;;;;;5050078;28;20211;-74
2022/09/07 10:26:51;;;;;;;6.78;2.90;;;38.80;1.00;;;;;;5046876;28;20202;-77
2022/09/07 10:29:34;;;;;;;6.28;2.60;;;39.40;1.00;;;;;;5048281;28;20177;-74
2022/09/07 10:32:18;;;;;;;5.95;2.47;;;40.00;1.00;;;;;;5034247;28;20543;-74
2022/09/07 10:34:43;;;;;;;5.72;2.55;;;39.50;1.00;;;;;;5048323;28;20192;-74
2022/09/07 10:37:12;;;;;;;5.47;2.53;;;38.30;1.00;;;;;;5047726;28;20199;-74
2022/09/07 10:39:47;;;;;;;5.60;2.60;;;37.90;1.00;;;;;;5044466;28;20212;-74
2022/09/07 10:42:27;;;;;;;6.43;2.58;;;38.80;1.00;;;;;;5036511;28;20184;-74
2022/09/07 10:45:18;;;;;;;8.02;3.08;;;39.10;1.00;;;;;;5043330;28;20564;-74
2022/09/07 10:48:05;;;;;;;4.28;2.83;;;40.20;1.00;;;;;;5046903;28;20636;-79
2022/09/07 10:50:52;;;;;;;8.40;2.72;;;41.10;1.00;;;;;;5035250;28;20177;-75
2022/09/07 10:53:37;;;;;;;5.68;2.47;;;40.60;1.00;;;;;;5044083;28;20173;-75
2022/09/07 10:56:29;;;;;;;7.13;2.63;;;41.10;1.00;;;;;;5036709;28;20570;-75
2022/09/07 10:59:21;;;;;;;5.53;2.67;;;41.20;1.00;;;;;;5047224;28;20850;-76
2022/09/07 11:02:03;;;;;;;5.70;2.38;;;41.30;1.00;;;;;;5034757;28;20189;-76
2022/09/07 11:05:12;;;;;;;4.68;2.60;;;41.70;1.00;;;;;;5048206;28;20169;-75
2022/09/07 11:07:46;;;;;;;9.18;2.50;;;41.70;1.00;;;;;;5046771;28;20253;-75
2022/09/07 11:10:30;;;;;;;4.13;2.78;;;41.70;1.00;;;;;;5046962;28;20169;-75
2022/09/07 11:12:59;;;;;;;4.68;2.40;;;41.70;1.00;;;;;;5049639;28;20177;-75
2022/09/07 11:15:38;;;;;;;5.50;2.50;;;42.10;1.00;;;;;;5054412;28;20216;-75
2022/09/07 11:18:22;;;;;;;4.10;2.60;;;41.40;1.00;;;;;;5038774;28;20306;-75
2022/09/07 11:20:55;;;;;;;7.80;2.55;;;41.20;1.00;;;;;;5046193;28;20208;-76
2022/09/07 11:23:42;;;;;;;8.73;2.80;;;41.10;1.00;;;;;;5047057;28;20562;-75
2022/09/07 11:26:29;;;;;;;5.32;2.42;;;40.40;1.00;;;;;;5041667;28;20192;-75
2022/09/07 11:29:09;;;;;;;10.73;3.17;;;39.50;1.00;;;;;;5042571;28;20279;-75
2022/09/07 11:31:47;;;;;;;6.65;2.90;;;39.40;1.00;;;;;;5049193;28;20203;-76
2022/09/07 11:34:23;;;;;;;6.60;2.63;;;40.30;1.00;;;;;;5046109;28;20188;-76
2022/09/07 11:36:56;;;;;;;7.00;2.20;;;40.60;1.00;;;;;;5046916;28;20583;-75
2022/09/07 11:39:29;;;;;;;5.70;2.33;;;42.10;1.00;;;;;;5042853;28;20192;-75
2022/09/07 11:42:24;;;;;;;6.30;2.50;;;42.10;1.00;;;;;;5043074;28;20532;-77
2022/09/07 11:45:22;;;;;;;5.97;2.35;;;42.40;1.00;;;;;;5054411;28;20333;-75
2022/09/07 11:47:57;;;;;;;3.83;2.28;;;42.00;1.00;;;;;;5068117;28;20199;-75
2022/09/07 11:50:23;;;;;;;4.57;2.28;;;41.80;1.00;;;;;;5049789;28;20248;-75
2022/09/07 11:52:54;;;;;;;4.00;1.88;;;42.70;1.00;;;;;;5049319;28;20201;-77
2022/09/07 11:55:24;;;;;;;5.20;2.40;;;43.20;1.00;;;;;;5040093;28;20634;-75
2022/09/07 11:58:12;;;;;;;6.72;2.10;;;42.90;1.00;;;;;;5047759;28;20176;-75
2022/09/07 12:00:43;;;;;;;6.38;2.40;;;42.70;1.00;;;;;;5042120;28;20206;-76
2022/09/07 12:03:41;;;;;;;5.80;2.20;;;43.30;1.00;;;;;;5052439;28;20642;-76
2022/09/07 12:06:27;;;;;;;3.17;1.80;;;42.80;1.00;;;;;;5043820;28;20211;-75
2022/09/07 12:09:31;;;;;;;3.88;2.10;;;40.00;1.00;;;;;;5050437;28;20188;-75
2022/09/07 12:12:42;;;;;;;5.80;2.10;;;41.00;1.00;;;;;;5048066;28;20207;-75
2022/09/07 12:15:33;;;;;;;4.38;2.28;;;42.00;1.00;;;;;;5038590;28;20414;-76
2022/09/07 12:18:36;;;;;;;3.50;2.10;;;42.20;1.00;;;;;;5049112;28;20187;-77
2022/09/07 12:21:02;;;;;;;5.50;2.20;;;42.90;1.00;;;;;;5033361;28;20272;-75
2022/09/07 12:23:30;;;;;;;6.90;1.90;;;43.80;1.00;;;;;;5049016;28;20802;-74
2022/09/07 12:26:34;;;;;;;4.90;1.80;;;43.50;1.00;;;;;;5054044;28;20189;-76
2022/09/07 12:28:59;;;;;;;4.07;2.13;;;43.90;1.00;;;;;;5043712;28;20266;-75
2022/09/07 12:31:46;;;;;;;4.22;2.22;;;43.40;1.00;;;;;;5052641;28;20181;-76
2022/09/07 12:34:32;;;;;;;3.90;2.30;;;42.70;1.00;;;;;;5046659;28;20173;-77
2022/09/07 12:37:25;;;;;;;4.72;2.25;;;43.00;1.00;;;;;;5050569;28;20191;-76
2022/09/07 12:40:32;;;;;;;6.03;2.40;;;43.70;1.00;;;;;;5052037;28;20220;-76
2022/09/07 12:43:12;;;;;;;4.05;2.00;;;43.00;1.00;;;;;;5052016;28;20165;-75
2022/09/07 12:45:38;;;;;;;5.63;2.20;;;43.00;1.00;;;;;;5058595;28;20184;-77
2022/09/07 12:48:16;;;;;;;5.90;2.05;;;42.70;1.00;;;;;;5057938;28;20762;-75
2022/09/07 12:51:00;;;;;;;4.22;2.33;;;41.90;1.00;;;;;;5049582;28;20203;-75
2022/09/07 12:53:50;;;;;;;3.72;2.40;;;42.00;1.00;;;;;;5049693;28;20210;-75
2022/09/07 12:56:42;;;;;;;5.88;1.98;;;41.90;1.00;;;;;;5046679;28;20223;-75
2022/09/07 12:59:22;;;;;;;3.30;2.10;;;40.50;1.00;;;;;;5045442;28;20640;-75
2022/09/07 13:02:15;;;;;;;6.25;2.20;;;41.10;1.00;;;;;;5049796;28;20275;-75
2022/09/07 13:04:53;;;;;;;7.40;2.55;;;41.30;1.00;;;;;;5050042;28;20650;-75
2022/09/07 13:07:43;;;;;;;6.93;2.50;;;41.60;1.00;;;;;;5044965;28;20247;-75
2022/09/07 13:10:29;;;;;;;5.80;2.38;;;40.40;1.00;;;;;;5036147;28;20187;-75
2022/09/07 13:13:20;;;;;;;7.97;2.50;;;39.10;1.00;;;;;;5048628;28;20670;-75
2022/09/07 13:16:14;;;;;;;4.07;2.08;;;38.50;1.00;;;;;;5060195;28;20689;-75
2022/09/07 13:18:45;;;;;;;3.97;2.13;;;39.30;1.00;;;;;;5070808;28;20587;-75
2022/09/07 13:21:12;;;;;;;9.65;2.30;;;38.90;1.00;;;;;;5049123;28;20273;-75
2022/09/07 13:23:42;;;;;;;4.47;2.30;;;38.70;1.00;;;;;;5051878;28;20176;-75